Temp: 16.6°C   Baro: 995.1mb
  Wind: 2.9mph   Dir: SSE (154°)
  Rain: 0.2mm (0.0mm/hr)
  Solar: 387W/m2  Hum: 70%

Historic data

Bath Spa Weather Station Historical Data
Daily Summary for June 10, 2023 Units:  Both    English   Metric
Daily Weekly Monthly Yearly Custom
  High: Low: Average:
Temperature: 78.8 °F /  26 °C 56.2 °F /  13.4 °C 67.3 °F /  19.6 °C
Dew Point: 64.8 °F /  18.2 °C 52.2 °F /  11.2 °C 59 °F /  15 °C
Humidity: 89% 59.6% 76%
Wind Speed: 5.7mph /  9.2km/h - 2.9mph /  4.7km/h
Wind Gust: 15mph /  24.1km/h - -
Wind- - SSE
Pressure: 29.96 in /  1014.4 hPa 29.89 in /  1012.1 hPa -
Precipitation: 0.00 in /  0 mm    
Historical Graphs
 
 
Tabular Data for June 10, 2023
Time Temperature Dew Point Pressure Wind Wind Speed Wind Gust Humidity Rainfall Rate (Hourly) solar
00:09 61.8 °F /  16.6 °C 55.1 °F /  12.8 °C 29.93in /  1013.4hPa East 5.4mph /  8.7km/h 15mph /  24.1km/h 79% 0.00in /  0mm 0 W/m2
00:14 61.5 °F /  16.4 °C 55 °F /  12.8 °C 29.93in /  1013.4hPa East 4.5mph /  7.2km/h 12mph /  19.3km/h 79.4% 0.00in /  0mm 0 W/m2
00:19 61.2 °F /  16.2 °C 54.9 °F /  12.7 °C 29.93in /  1013.4hPa ESE 3.6mph /  5.8km/h 11mph /  17.7km/h 80% 0.00in /  0mm 0 W/m2
00:24 61 °F /  16.1 °C 54.7 °F /  12.6 °C 29.93in /  1013.4hPa East 5.2mph /  8.4km/h 13mph /  20.9km/h 80% 0.00in /  0mm 0 W/m2
00:29 60.9 °F /  16.1 °C 54.8 °F /  12.7 °C 29.93in /  1013.4hPa SE 4.8mph /  7.7km/h 11mph /  17.7km/h 80.4% 0.00in /  0mm 0 W/m2
00:33 60.6 °F /  15.9 °C 54.7 °F /  12.6 °C 29.93in /  1013.4hPa SE 5mph /  8km/h 8mph /  12.9km/h 81% 0.00in /  0mm 0 W/m2
00:39 60.5 °F /  15.8 °C 54.6 °F /  12.6 °C 29.93in /  1013.4hPa ESE 3.7mph /  6km/h 8mph /  12.9km/h 81% 0.00in /  0mm 0 W/m2
00:44 60.3 °F /  15.7 °C 54.4 °F /  12.4 °C 29.93in /  1013.4hPa ESE 2.7mph /  4.3km/h 9mph /  14.5km/h 81% 0.00in /  0mm 0 W/m2
00:49 60.1 °F /  15.6 °C 54.3 °F /  12.4 °C 29.93in /  1013.4hPa SE 3.2mph /  5.1km/h 11mph /  17.7km/h 81% 0.00in /  0mm 0 W/m2
00:54 59.8 °F /  15.4 °C 54.1 °F /  12.3 °C 29.93in /  1013.4hPa East 2.2mph /  3.5km/h 7mph /  11.3km/h 81.2% 0.00in /  0mm 0 W/m2
00:59 59.6 °F /  15.3 °C 54.1 °F /  12.3 °C 29.93in /  1013.4hPa SE 2.3mph /  3.7km/h 8mph /  12.9km/h 82% 0.00in /  0mm 0 W/m2
01:04 59.4 °F /  15.2 °C 53.9 °F /  12.2 °C 29.93in /  1013.4hPa SE 2mph /  3.2km/h 9mph /  14.5km/h 82% 0.00in /  0mm 0 W/m2
01:09 59.3 °F /  15.2 °C 53.7 °F /  12.1 °C 29.93in /  1013.4hPa ESE 3.2mph /  5.1km/h 9mph /  14.5km/h 82% 0.00in /  0mm 0 W/m2
01:14 58.9 °F /  14.9 °C 53.6 °F /  12 °C 29.93in /  1013.4hPa SSE 1.4mph /  2.3km/h 8mph /  12.9km/h 82.6% 0.00in /  0mm 0 W/m2
01:19 58.8 °F /  14.9 °C 53.6 °F /  12 °C 29.93in /  1013.4hPa SE 2.9mph /  4.7km/h 7mph /  11.3km/h 83% 0.00in /  0mm 0 W/m2
01:24 58.6 °F /  14.8 °C 53.4 °F /  11.9 °C 29.93in /  1013.4hPa SE 2.9mph /  4.7km/h 6mph /  9.7km/h 83% 0.00in /  0mm 0 W/m2
01:29 58.5 °F /  14.7 °C 53.2 °F /  11.8 °C 29.93in /  1013.4hPa South 3.2mph /  5.1km/h 6mph /  9.7km/h 83% 0.00in /  0mm 0 W/m2
01:34 58.3 °F /  14.6 °C 53.3 °F /  11.8 °C 29.93in /  1013.4hPa SSW 2.9mph /  4.7km/h 5mph /  8km/h 83.8% 0.00in /  0mm 0 W/m2
01:39 58.3 °F /  14.6 °C 53.4 °F /  11.9 °C 29.93in /  1013.4hPa SSE 1.8mph /  2.9km/h 5mph /  8km/h 84% 0.00in /  0mm 0 W/m2
01:44 58.1 °F /  14.5 °C 53.2 °F /  11.8 °C 29.93in /  1013.4hPa SSE 0.7mph /  1.1km/h 3mph /  4.8km/h 84% 0.00in /  0mm 0 W/m2
01:49 57.9 °F /  14.4 °C 53.1 °F /  11.7 °C 29.93in /  1013.4hPa SSE 2.9mph /  4.7km/h 4mph /  6.4km/h 84% 0.00in /  0mm 0 W/m2
01:54 57.8 °F /  14.3 °C 53 °F /  11.7 °C 29.93in /  1013.4hPa SE 2mph /  3.2km/h 6mph /  9.7km/h 84% 0.00in /  0mm 0 W/m2
01:59 57.7 °F /  14.3 °C 52.9 °F /  11.6 °C 29.93in /  1013.4hPa ESE 2.2mph /  3.5km/h 5mph /  8km/h 84% 0.00in /  0mm 0 W/m2
02:04 57.7 °F /  14.3 °C 53.1 °F /  11.7 °C 29.93in /  1013.4hPa East 2.5mph /  4km/h 9mph /  14.5km/h 84.8% 0.00in /  0mm 0 W/m2
02:09 57.6 °F /  14.2 °C 53.1 °F /  11.7 °C 29.93in /  1013.4hPa East 0.8mph /  1.3km/h 3mph /  4.8km/h 85% 0.00in /  0mm 0 W/m2
02:14 57.6 °F /  14.2 °C 53.1 °F /  11.7 °C 29.93in /  1013.4hPa ENE 2.4mph /  3.9km/h 7mph /  11.3km/h 85% 0.00in /  0mm 0 W/m2
02:19 57.4 °F /  14.1 °C 52.9 °F /  11.6 °C 29.93in /  1013.4hPa NE 1.8mph /  2.9km/h 7mph /  11.3km/h 85% 0.00in /  0mm 0 W/m2
02:24 57.4 °F /  14.1 °C 52.9 °F /  11.6 °C 29.93in /  1013.4hPa NE 3.7mph /  6km/h 7mph /  11.3km/h 85% 0.00in /  0mm 0 W/m2
02:29 57.1 °F /  13.9 °C 52.6 °F /  11.4 °C 29.93in /  1013.4hPa ENE 2.9mph /  4.7km/h 8mph /  12.9km/h 85% 0.00in /  0mm 0 W/m2
02:34 57 °F /  13.9 °C 52.5 °F /  11.4 °C 29.93in /  1013.4hPa ESE 1.8mph /  2.9km/h 8mph /  12.9km/h 85% 0.00in /  0mm 0 W/m2
02:39 56.8 °F /  13.8 °C 52.3 °F /  11.3 °C 29.93in /  1013.4hPa ENE 2.2mph /  3.5km/h 6mph /  9.7km/h 85% 0.00in /  0mm 0 W/m2
02:44 56.8 °F /  13.8 °C 52.3 °F /  11.3 °C 29.93in /  1013.4hPa ENE 4.8mph /  7.7km/h 9mph /  14.5km/h 85% 0.00in /  0mm 0 W/m2
02:49 56.6 °F /  13.7 °C 52.2 °F /  11.2 °C 29.92in /  1013.1hPa NE 3.3mph /  5.3km/h 10mph /  16.1km/h 85.4% 0.00in /  0mm 0 W/m2
02:54 56.5 °F /  13.6 °C 52.3 °F /  11.3 °C 29.92in /  1013.1hPa ENE 3.6mph /  5.8km/h 9mph /  14.5km/h 86% 0.00in /  0mm 0 W/m2
02:59 56.5 °F /  13.6 °C 52.3 °F /  11.3 °C 29.92in /  1013.1hPa ENE 5.2mph /  8.4km/h 11mph /  17.7km/h 86% 0.00in /  0mm 0 W/m2
03:04 56.4 °F /  13.6 °C 52.3 °F /  11.3 °C 29.92in /  1013.1hPa NE 3.7mph /  6km/h 9mph /  14.5km/h 86% 0.00in /  0mm 0 W/m2
03:09 56.3 °F /  13.5 °C 52.2 °F /  11.2 °C 29.92in /  1013.1hPa East 3.6mph /  5.8km/h 9mph /  14.5km/h 86% 0.00in /  0mm 0 W/m2
03:14 56.3 °F /  13.5 °C 52.3 °F /  11.3 °C 29.92in /  1013.1hPa ENE 2.4mph /  3.9km/h 7mph /  11.3km/h 86.2% 0.00in /  0mm 0 W/m2
03:19 56.3 °F /  13.5 °C 52.5 °F /  11.4 °C 29.92in /  1013.1hPa East 2.3mph /  3.7km/h 6mph /  9.7km/h 87% 0.00in /  0mm 0 W/m2
03:24 56.2 °F /  13.4 °C 52.4 °F /  11.3 °C 29.92in /  1013.1hPa ENE 4.4mph /  7.1km/h 10mph /  16.1km/h 87% 0.00in /  0mm 0 W/m2
03:29 56.3 °F /  13.5 °C 52.5 °F /  11.4 °C 29.92in /  1013.1hPa ENE 2.8mph /  4.5km/h 8mph /  12.9km/h 87% 0.00in /  0mm 0 W/m2
03:34 56.3 °F /  13.5 °C 52.5 °F /  11.4 °C 29.93in /  1013.4hPa ENE 0.9mph /  1.4km/h 9mph /  14.5km/h 87% 0.00in /  0mm 0 W/m2
03:39 56.4 °F /  13.6 °C 52.6 °F /  11.4 °C 29.92in /  1013.1hPa ENE 1.9mph /  3.1km/h 4mph /  6.4km/h 87% 0.00in /  0mm 0 W/m2
03:44 56.4 °F /  13.6 °C 52.6 °F /  11.4 °C 29.93in /  1013.4hPa East 2mph /  3.2km/h 8mph /  12.9km/h 87% 0.00in /  0mm 0 W/m2
03:49 56.5 °F /  13.6 °C 52.8 °F /  11.6 °C 29.93in /  1013.4hPa ENE 1.9mph /  3.1km/h 9mph /  14.5km/h 87.8% 0.00in /  0mm 0 W/m2
03:54 56.5 °F /  13.6 °C 52.9 °F /  11.6 °C 29.93in /  1013.4hPa ENE 1.7mph /  2.7km/h 7mph /  11.3km/h 88% 0.00in /  0mm 0 W/m2
03:59 56.5 °F /  13.6 °C 52.9 °F /  11.6 °C 29.93in /  1013.4hPa East 4.8mph /  7.7km/h 11mph /  17.7km/h 88% 0.00in /  0mm 0 W/m2
04:04 56.5 °F /  13.6 °C 52.9 °F /  11.6 °C 29.93in /  1013.4hPa NE 2mph /  3.2km/h 9mph /  14.5km/h 88% 0.00in /  0mm 0 W/m2
04:09 56.5 °F /  13.6 °C 52.9 °F /  11.6 °C 29.93in /  1013.4hPa ENE 2.8mph /  4.5km/h 10mph /  16.1km/h 88% 0.00in /  0mm 0 W/m2
04:14 56.5 °F /  13.6 °C 52.9 °F /  11.6 °C 29.92in /  1013.1hPa NE 4.8mph /  7.7km/h 11mph /  17.7km/h 88% 0.00in /  0mm 0 W/m2
04:19 56.5 °F /  13.6 °C 52.9 °F /  11.6 °C 29.92in /  1013.1hPa East 4mph /  6.4km/h 11mph /  17.7km/h 88% 0.00in /  0mm 0 W/m2
04:24 56.5 °F /  13.6 °C 52.9 °F /  11.6 °C 29.92in /  1013.1hPa ENE 4.2mph /  6.8km/h 10mph /  16.1km/h 88% 0.00in /  0mm 0 W/m2
04:29 56.5 °F /  13.6 °C 52.9 °F /  11.6 °C 29.92in /  1013.1hPa East 3.8mph /  6.1km/h 10mph /  16.1km/h 88% 0.00in /  0mm 0 W/m2
04:34 56.5 °F /  13.6 °C 52.9 °F /  11.6 °C 29.92in /  1013.1hPa NE 1.7mph /  2.7km/h 8mph /  12.9km/h 88% 0.00in /  0mm 0 W/m2
04:39 56.5 °F /  13.6 °C 52.9 °F /  11.6 °C 29.92in /  1013.1hPa East 1.9mph /  3.1km/h 6mph /  9.7km/h 88% 0.00in /  0mm 0 W/m2
04:44 56.5 °F /  13.6 °C 52.9 °F /  11.6 °C 29.92in /  1013.1hPa East 3.1mph /  5km/h 6mph /  9.7km/h 88% 0.00in /  0mm 0 W/m2
04:49 56.5 °F /  13.6 °C 52.9 °F /  11.6 °C 29.92in /  1013.1hPa East 4.8mph /  7.7km/h 10mph /  16.1km/h 88% 0.00in /  0mm 0 W/m2
04:54 56.5 °F /  13.6 °C 53.1 °F /  11.7 °C 29.92in /  1013.1hPa ESE 2.6mph /  4.2km/h 11mph /  17.7km/h 88.6% 0.00in /  0mm 0 W/m2
04:59 56.5 °F /  13.6 °C 53.2 °F /  11.8 °C 29.92in /  1013.1hPa East 3.4mph /  5.5km/h 8mph /  12.9km/h 89% 0.00in /  0mm 5 W/m2
05:04 56.5 °F /  13.6 °C 53.2 °F /  11.8 °C 29.92in /  1013.1hPa ESE 2.9mph /  4.7km/h 9mph /  14.5km/h 89% 0.00in /  0mm 5 W/m2
05:09 56.5 °F /  13.6 °C 53.2 °F /  11.8 °C 29.92in /  1013.1hPa ESE 1.6mph /  2.6km/h 6mph /  9.7km/h 89% 0.00in /  0mm 7 W/m2
05:14 56.5 °F /  13.6 °C 53.2 °F /  11.8 °C 29.92in /  1013.1hPa ESE 0.4mph /  0.6km/h 3mph /  4.8km/h 89% 0.00in /  0mm 7 W/m2
05:19 56.5 °F /  13.6 °C 53.2 °F /  11.8 °C 29.92in /  1013.1hPa NE 2mph /  3.2km/h 10mph /  16.1km/h 89% 0.00in /  0mm 11 W/m2
05:24 56.5 °F /  13.6 °C 53.2 °F /  11.8 °C 29.92in /  1013.1hPa ENE 1.4mph /  2.3km/h 8mph /  12.9km/h 89% 0.00in /  0mm 12 W/m2
05:29 56.5 °F /  13.6 °C 53.2 °F /  11.8 °C 29.92in /  1013.1hPa East 2.9mph /  4.7km/h 9mph /  14.5km/h 89% 0.00in /  0mm 18 W/m2
05:34 56.5 °F /  13.6 °C 53.2 °F /  11.8 °C 29.92in /  1013.1hPa NE 2.8mph /  4.5km/h 9mph /  14.5km/h 89% 0.00in /  0mm 21 W/m2
05:39 56.4 °F /  13.6 °C 53.1 °F /  11.7 °C 29.92in /  1013.1hPa ENE 1.7mph /  2.7km/h 9mph /  14.5km/h 89% 0.00in /  0mm 25 W/m2
05:44 56.2 °F /  13.4 °C 53 °F /  11.7 °C 29.92in /  1013.1hPa East 3.7mph /  6km/h 11mph /  17.7km/h 89% 0.00in /  0mm 33 W/m2
05:49 56.3 °F /  13.5 °C 53.1 °F /  11.7 °C 29.92in /  1013.1hPa NE 2.4mph /  3.9km/h 10mph /  16.1km/h 89% 0.00in /  0mm 39 W/m2
05:54 56.4 °F /  13.6 °C 53.1 °F /  11.7 °C 29.92in /  1013.1hPa ENE 5.1mph /  8.2km/h 11mph /  17.7km/h 89% 0.00in /  0mm 44 W/m2
05:59 56.5 °F /  13.6 °C 53.2 °F /  11.8 °C 29.92in /  1013.1hPa NE 1.7mph /  2.7km/h 6mph /  9.7km/h 89% 0.00in /  0mm 47 W/m2
06:04 56.5 °F /  13.6 °C 53.2 °F /  11.8 °C 29.92in /  1013.1hPa East 3.5mph /  5.6km/h 8mph /  12.9km/h 89% 0.00in /  0mm 60 W/m2
06:09 56.5 °F /  13.6 °C 53.2 °F /  11.8 °C 29.92in /  1013.1hPa ESE 1.8mph /  2.9km/h 9mph /  14.5km/h 89% 0.00in /  0mm 76 W/m2
06:14 56.5 °F /  13.6 °C 53.2 °F /  11.8 °C 29.92in /  1013.1hPa ESE 2mph /  3.2km/h 9mph /  14.5km/h 89% 0.00in /  0mm 77 W/m2
06:19 56.7 °F /  13.7 °C 53.4 °F /  11.9 °C 29.92in /  1013.1hPa ENE 4.8mph /  7.7km/h 11mph /  17.7km/h 89% 0.00in /  0mm 83 W/m2
06:24 56.7 °F /  13.7 °C 53.3 °F /  11.8 °C 29.92in /  1013.1hPa ESE 2mph /  3.2km/h 7mph /  11.3km/h 88.6% 0.00in /  0mm 79 W/m2
06:29 56.7 °F /  13.7 °C 53.1 °F /  11.7 °C 29.93in /  1013.4hPa East 5.1mph /  8.2km/h 9mph /  14.5km/h 88% 0.00in /  0mm 58 W/m2
06:34 56.8 °F /  13.8 °C 53.2 °F /  11.8 °C 29.93in /  1013.4hPa NNE 2.5mph /  4km/h 8mph /  12.9km/h 88% 0.00in /  0mm 70 W/m2
06:39 56.8 °F /  13.8 °C 53.2 °F /  11.8 °C 29.93in /  1013.4hPa ENE 2.6mph /  4.2km/h 8mph /  12.9km/h 88% 0.00in /  0mm 69 W/m2
06:44 56.8 °F /  13.8 °C 53.2 °F /  11.8 °C 29.93in /  1013.4hPa NE 3.1mph /  5km/h 8mph /  12.9km/h 88% 0.00in /  0mm 83 W/m2
06:49 56.9 °F /  13.8 °C 53.3 °F /  11.8 °C 29.93in /  1013.4hPa ENE 4.1mph /  6.6km/h 10mph /  16.1km/h 88% 0.00in /  0mm 104 W/m2
06:54 57 °F /  13.9 °C 53.4 °F /  11.9 °C 29.93in /  1013.4hPa NE 2.9mph /  4.7km/h 8mph /  12.9km/h 88% 0.00in /  0mm 139 W/m2
06:59 57 °F /  13.9 °C 53.4 °F /  11.9 °C 29.93in /  1013.4hPa ENE 3mph /  4.8km/h 7mph /  11.3km/h 88% 0.00in /  0mm 160 W/m2
07:04 57 °F /  13.9 °C 53.4 °F /  11.9 °C 29.93in /  1013.4hPa East 3.7mph /  6km/h 8mph /  12.9km/h 88% 0.00in /  0mm 151 W/m2
07:09 56.8 °F /  13.8 °C 53.1 °F /  11.7 °C 29.93in /  1013.4hPa East 2mph /  3.2km/h 6mph /  9.7km/h 87% 0.00in /  0mm 172 W/m2
07:14 57.1 °F /  13.9 °C 53.3 °F /  11.8 °C 29.94in /  1013.8hPa ENE 2.9mph /  4.7km/h 6mph /  9.7km/h 87% 0.00in /  0mm 148 W/m2
07:19 57.4 °F /  14.1 °C 53.6 °F /  12 °C 29.93in /  1013.4hPa East 2.4mph /  3.9km/h 7mph /  11.3km/h 87% 0.00in /  0mm 156 W/m2
07:24 57.6 °F /  14.2 °C 53.8 °F /  12.1 °C 29.94in /  1013.8hPa East 0.2mph /  0.3km/h 2mph /  3.2km/h 87% 0.00in /  0mm 144 W/m2
07:29 57.8 °F /  14.3 °C 54.1 °F /  12.3 °C 29.94in /  1013.8hPa NE 2.6mph /  4.2km/h 6mph /  9.7km/h 87% 0.00in /  0mm 76 W/m2
07:34 57.9 °F /  14.4 °C 53.9 °F /  12.2 °C 29.94in /  1013.8hPa NE 3.2mph /  5.1km/h 9mph /  14.5km/h 86.2% 0.00in /  0mm 144 W/m2
07:39 58 °F /  14.4 °C 53.9 °F /  12.2 °C 29.94in /  1013.8hPa NE 3.3mph /  5.3km/h 7mph /  11.3km/h 86% 0.00in /  0mm 181 W/m2
07:44 58.2 °F /  14.6 °C 54.1 °F /  12.3 °C 29.94in /  1013.8hPa ENE 2.2mph /  3.5km/h 7mph /  11.3km/h 86% 0.00in /  0mm 185 W/m2
07:49 58.4 °F /  14.7 °C 54.2 °F /  12.3 °C 29.94in /  1013.8hPa East 1.2mph /  1.9km/h 6mph /  9.7km/h 86% 0.00in /  0mm 199 W/m2
07:54 58.6 °F /  14.8 °C 54.3 °F /  12.4 °C 29.94in /  1013.8hPa ENE 2.9mph /  4.7km/h 6mph /  9.7km/h 85.4% 0.00in /  0mm 234 W/m2
07:59 58.8 °F /  14.9 °C 54.3 °F /  12.4 °C 29.94in /  1013.8hPa NE 4.4mph /  7.1km/h 8mph /  12.9km/h 85% 0.00in /  0mm 207 W/m2
08:04 59 °F /  15 °C 54.4 °F /  12.4 °C 29.94in /  1013.8hPa ENE 3.1mph /  5km/h 8mph /  12.9km/h 84.6% 0.00in /  0mm 387 W/m2
08:09 59.4 °F /  15.2 °C 54.5 °F /  12.5 °C 29.94in /  1013.8hPa NE 4.1mph /  6.6km/h 7mph /  11.3km/h 84% 0.00in /  0mm 387 W/m2
08:14 59.6 °F /  15.3 °C 54.7 °F /  12.6 °C 29.94in /  1013.8hPa NE 1.6mph /  2.6km/h 7mph /  11.3km/h 83.6% 0.00in /  0mm 274 W/m2
08:19 59.9 °F /  15.5 °C 54.7 °F /  12.6 °C 29.94in /  1013.8hPa NE 2.4mph /  3.9km/h 5mph /  8km/h 83% 0.00in /  0mm 413 W/m2
08:24 60.3 °F /  15.7 °C 54.9 °F /  12.7 °C 29.94in /  1013.8hPa NNE 2.2mph /  3.5km/h 7mph /  11.3km/h 82.6% 0.00in /  0mm 397 W/m2
08:29 60.4 °F /  15.8 °C 54.8 °F /  12.7 °C 29.94in /  1013.8hPa NNE 2.8mph /  4.5km/h 10mph /  16.1km/h 82% 0.00in /  0mm 418 W/m2
08:34 60.4 °F /  15.8 °C 54.7 °F /  12.6 °C 29.93in /  1013.4hPa NE 2.2mph /  3.5km/h 10mph /  16.1km/h 81.6% 0.00in /  0mm 367 W/m2
08:39 60.3 °F /  15.7 °C 54.3 °F /  12.4 °C 29.93in /  1013.4hPa NNE 3.6mph /  5.8km/h 8mph /  12.9km/h 81% 0.00in /  0mm 367 W/m2
08:44 60.4 °F /  15.8 °C 54.5 °F /  12.5 °C 29.93in /  1013.4hPa NE 3.3mph /  5.3km/h 11mph /  17.7km/h 81% 0.00in /  0mm 381 W/m2
08:49 60.6 °F /  15.9 °C 54.7 °F /  12.6 °C 29.93in /  1013.4hPa NE 3.7mph /  6km/h 11mph /  17.7km/h 81% 0.00in /  0mm 446 W/m2
08:54 61 °F /  16.1 °C 55 °F /  12.8 °C 29.94in /  1013.8hPa ENE 2.5mph /  4km/h 11mph /  17.7km/h 81% 0.00in /  0mm 420 W/m2
08:59 61.4 °F /  16.3 °C 55.2 °F /  12.9 °C 29.94in /  1013.8hPa NE 4.5mph /  7.2km/h 8mph /  12.9km/h 80.2% 0.00in /  0mm 483 W/m2
09:04 62 °F /  16.7 °C 55.6 °F /  13.1 °C 29.94in /  1013.8hPa ENE 4.8mph /  7.7km/h 9mph /  14.5km/h 79.8% 0.00in /  0mm 429 W/m2
09:09 62.3 °F /  16.8 °C 55.6 °F /  13.1 °C 29.94in /  1013.8hPa NNE 3.1mph /  5km/h 9mph /  14.5km/h 79% 0.00in /  0mm 471 W/m2
09:14 62.7 °F /  17.1 °C 55.8 °F /  13.2 °C 29.93in /  1013.4hPa NE 3.7mph /  6km/h 9mph /  14.5km/h 78.4% 0.00in /  0mm 443 W/m2
09:19 62.9 °F /  17.2 °C 55.8 °F /  13.2 °C 29.94in /  1013.8hPa NE 2.8mph /  4.5km/h 8mph /  12.9km/h 77.8% 0.00in /  0mm 429 W/m2
09:24 63.3 °F /  17.4 °C 56.1 °F /  13.4 °C 29.94in /  1013.8hPa East 3.3mph /  5.3km/h 8mph /  12.9km/h 77.6% 0.00in /  0mm 543 W/m2
09:29 63.8 °F /  17.7 °C 56.4 °F /  13.6 °C 29.94in /  1013.8hPa NE 3.4mph /  5.5km/h 8mph /  12.9km/h 77% 0.00in /  0mm 520 W/m2
09:34 64.1 °F /  17.8 °C 56.4 °F /  13.6 °C 29.94in /  1013.8hPa NNE 3.5mph /  5.6km/h 7mph /  11.3km/h 76% 0.00in /  0mm 550 W/m2
09:39 64.2 °F /  17.9 °C 56.2 °F /  13.4 °C 29.93in /  1013.4hPa ENE 2.8mph /  4.5km/h 8mph /  12.9km/h 75.2% 0.00in /  0mm 587 W/m2
09:44 64.6 °F /  18.1 °C 56.5 °F /  13.6 °C 29.94in /  1013.8hPa East 3.7mph /  6km/h 9mph /  14.5km/h 75% 0.00in /  0mm 584 W/m2
09:49 65 °F /  18.3 °C 56.8 °F /  13.8 °C 29.93in /  1013.4hPa NE 2.1mph /  3.4km/h 6mph /  9.7km/h 74.8% 0.00in /  0mm 601 W/m2
09:54 65.9 °F /  18.8 °C 57.5 °F /  14.2 °C 29.93in /  1013.4hPa NE 3.6mph /  5.8km/h 7mph /  11.3km/h 74.2% 0.00in /  0mm 610 W/m2
09:59 66.4 °F /  19.1 °C 57.6 °F /  14.2 °C 29.93in /  1013.4hPa NNE 2.6mph /  4.2km/h 11mph /  17.7km/h 73.4% 0.00in /  0mm 601 W/m2
10:04 66.7 °F /  19.3 °C 57.6 °F /  14.2 °C 29.93in /  1013.4hPa NE 3.7mph /  6km/h 10mph /  16.1km/h 72.8% 0.00in /  0mm 621 W/m2
10:09 66.8 °F /  19.3 °C 57.5 °F /  14.2 °C 29.93in /  1013.4hPa ESE 3mph /  4.8km/h 8mph /  12.9km/h 72% 0.00in /  0mm 640 W/m2
10:14 67.1 °F /  19.5 °C 57.8 °F /  14.3 °C 29.92in /  1013.1hPa NNE 5.2mph /  8.4km/h 10mph /  16.1km/h 72% 0.00in /  0mm 650 W/m2
10:19 67.8 °F /  19.9 °C 58.1 °F /  14.5 °C 29.92in /  1013.1hPa ENE 3.1mph /  5km/h 8mph /  12.9km/h 71% 0.00in /  0mm 661 W/m2
10:24 68.7 °F /  20.4 °C 58.8 °F /  14.9 °C 29.92in /  1013.1hPa ESE 2.8mph /  4.5km/h 7mph /  11.3km/h 70.6% 0.00in /  0mm 677 W/m2
10:29 69.3 °F /  20.7 °C 59 °F /  15 °C 29.92in /  1013.1hPa NNE 4.2mph /  6.8km/h 7mph /  11.3km/h 70% 0.00in /  0mm 703 W/m2
10:34 69.8 °F /  21 °C 59.3 °F /  15.2 °C 29.92in /  1013.1hPa ENE 4.5mph /  7.2km/h 12mph /  19.3km/h 69.4% 0.00in /  0mm 724 W/m2
10:39 70.4 °F /  21.3 °C 59.7 °F /  15.4 °C 29.92in /  1013.1hPa ENE 4.4mph /  7.1km/h 10mph /  16.1km/h 68.8% 0.00in /  0mm 708 W/m2
10:44 71.1 °F /  21.7 °C 60 °F /  15.6 °C 29.92in /  1013.1hPa ENE 1.7mph /  2.7km/h 7mph /  11.3km/h 68% 0.00in /  0mm 773 W/m2
10:49 71.5 °F /  21.9 °C 60.3 °F /  15.7 °C 29.92in /  1013.1hPa SE 1.9mph /  3.1km/h 5mph /  8km/h 68% 0.00in /  0mm 693 W/m2
10:54 71.1 °F /  21.7 °C 59.7 °F /  15.4 °C 29.92in /  1013.1hPa ESE 3.9mph /  6.3km/h 8mph /  12.9km/h 67.6% 0.00in /  0mm 826 W/m2
10:59 70.2 °F /  21.2 °C 59.2 °F /  15.1 °C 29.93in /  1013.4hPa SE 4.4mph /  7.1km/h 8mph /  12.9km/h 68.2% 0.00in /  0mm 819 W/m2
11:04 70.1 °F /  21.2 °C 59.4 °F /  15.2 °C 29.93in /  1013.4hPa SE 3.1mph /  5km/h 8mph /  12.9km/h 69% 0.00in /  0mm 812 W/m2
11:09 70.1 °F /  21.2 °C 59.4 °F /  15.2 °C 29.93in /  1013.4hPa SSE 4.4mph /  7.1km/h 11mph /  17.7km/h 69% 0.00in /  0mm 789 W/m2
11:14 69.8 °F /  21 °C 59.2 °F /  15.1 °C 29.93in /  1013.4hPa ESE 4.4mph /  7.1km/h 13mph /  20.9km/h 69.2% 0.00in /  0mm 821 W/m2
11:19 70.3 °F /  21.3 °C 59.5 °F /  15.3 °C 29.93in /  1013.4hPa SE 5mph /  8km/h 12mph /  19.3km/h 68.3% 0.00in /  0mm 749 W/m2
11:24 70.7 °F /  21.5 °C 59.5 °F /  15.3 °C 29.93in /  1013.4hPa SE 3.4mph /  5.5km/h 7mph /  11.3km/h 67.8% 0.00in /  0mm 861 W/m2
11:29 70.5 °F /  21.4 °C 59.2 °F /  15.1 °C 29.93in /  1013.4hPa East 3.5mph /  5.6km/h 10mph /  16.1km/h 67.6% 0.00in /  0mm 881 W/m2
11:34 70.6 °F /  21.4 °C 59.6 °F /  15.3 °C 29.92in /  1013.1hPa ESE 5.3mph /  8.5km/h 10mph /  16.1km/h 68.2% 0.00in /  0mm 817 W/m2
11:39 71.5 °F /  21.9 °C 60.3 °F /  15.7 °C 29.92in /  1013.1hPa ESE 3.2mph /  5.1km/h 9mph /  14.5km/h 67.8% 0.00in /  0mm 860 W/m2
11:44 72 °F /  22.2 °C 60.2 °F /  15.7 °C 29.92in /  1013.1hPa SE 3.3mph /  5.3km/h 8mph /  12.9km/h 66.4% 0.00in /  0mm 853 W/m2
11:49 72.3 °F /  22.4 °C 60.6 °F /  15.9 °C 29.92in /  1013.1hPa ESE 3.5mph /  5.6km/h 9mph /  14.5km/h 66.8% 0.00in /  0mm 874 W/m2
11:54 73.4 °F /  23 °C 61.1 °F /  16.2 °C 29.92in /  1013.1hPa ESE 3.6mph /  5.8km/h 9mph /  14.5km/h 65.4% 0.00in /  0mm 788 W/m2
11:59 73.9 °F /  23.3 °C 60.9 °F /  16.1 °C 29.92in /  1013.1hPa ESE 4.5mph /  7.2km/h 10mph /  16.1km/h 64% 0.00in /  0mm 858 W/m2
12:04 74.8 °F /  23.8 °C 61.5 °F /  16.4 °C 29.92in /  1013.1hPa ESE 2.1mph /  3.4km/h 8mph /  12.9km/h 63.2% 0.00in /  0mm 758 W/m2
12:09 75.5 °F /  24.2 °C 61.6 °F /  16.4 °C 29.92in /  1013.1hPa NE 3.7mph /  6km/h 8mph /  12.9km/h 62% 0.00in /  0mm 606 W/m2
12:14 76.3 °F /  24.6 °C 62.2 °F /  16.8 °C 29.92in /  1013.1hPa ENE 2.6mph /  4.2km/h 6mph /  9.7km/h 61.8% 0.00in /  0mm 657 W/m2
12:19 76.6 °F /  24.8 °C 62.1 °F /  16.7 °C 29.92in /  1013.1hPa East 2.7mph /  4.3km/h 7mph /  11.3km/h 60.8% 0.00in /  0mm 689 W/m2
12:24 77.2 °F /  25.1 °C 62.5 °F /  16.9 °C 29.92in /  1013.1hPa East 1.7mph /  2.7km/h 7mph /  11.3km/h 60.6% 0.00in /  0mm 708 W/m2
12:29 77.7 °F /  25.4 °C 62.7 °F /  17.1 °C 29.92in /  1013.1hPa East 2.8mph /  4.5km/h 6mph /  9.7km/h 59.8% 0.00in /  0mm 1062 W/m2
12:34 77.4 °F /  25.2 °C 62.3 °F /  16.8 °C 29.92in /  1013.1hPa ESE 2.5mph /  4km/h 6mph /  9.7km/h 59.8% 0.00in /  0mm 527 W/m2
12:39 77.3 °F /  25.2 °C 62.4 °F /  16.9 °C 29.92in /  1013.1hPa East 0.5mph /  0.8km/h 5mph /  8km/h 60.2% 0.00in /  0mm 555 W/m2
12:44 77.4 °F /  25.2 °C 62.6 °F /  17 °C 29.92in /  1013.1hPa East 0.8mph /  1.3km/h 3mph /  4.8km/h 60.4% 0.00in /  0mm 508 W/m2
12:49 77.4 °F /  25.2 °C 62.6 °F /  17 °C 29.92in /  1013.1hPa ENE 2.7mph /  4.3km/h 7mph /  11.3km/h 60.4% 0.00in /  0mm 522 W/m2
12:54 77.7 °F /  25.4 °C 63 °F /  17.2 °C 29.92in /  1013.1hPa ENE 1.6mph /  2.6km/h 5mph /  8km/h 60.6% 0.00in /  0mm 480 W/m2
12:59 77.7 °F /  25.4 °C 63.1 °F /  17.3 °C 29.92in /  1013.1hPa ESE 2.1mph /  3.4km/h 5mph /  8km/h 60.8% 0.00in /  0mm 445 W/m2
13:04 78.3 °F /  25.7 °C 63.3 °F /  17.4 °C 29.92in /  1013.1hPa East 3.6mph /  5.8km/h 8mph /  12.9km/h 60% 0.00in /  0mm 406 W/m2
13:09 78.5 °F /  25.8 °C 63.4 °F /  17.4 °C 29.92in /  1013.1hPa ENE 1.2mph /  1.9km/h 5mph /  8km/h 60% 0.00in /  0mm 360 W/m2
13:14 78.2 °F /  25.7 °C 63.3 °F /  17.4 °C 29.92in /  1013.1hPa NE 0.8mph /  1.3km/h 4mph /  6.4km/h 60.2% 0.00in /  0mm 359 W/m2
13:19 78.2 °F /  25.7 °C 63.4 °F /  17.4 °C 29.92in /  1013.1hPa ENE 2mph /  3.2km/h 5mph /  8km/h 60.6% 0.00in /  0mm 462 W/m2
13:24 78.8 °F /  26 °C 63.5 °F /  17.5 °C 29.92in /  1013.1hPa ENE 1.2mph /  1.9km/h 5mph /  8km/h 59.6% 0.00in /  0mm 594 W/m2
13:29 78.3 °F /  25.7 °C 63.4 °F /  17.4 °C 29.92in /  1013.1hPa East 1.2mph /  1.9km/h 3mph /  4.8km/h 60.2% 0.00in /  0mm 721 W/m2
13:34 77.6 °F /  25.3 °C 62.9 °F /  17.2 °C 29.92in /  1013.1hPa SSE 2.3mph /  3.7km/h 6mph /  9.7km/h 60.4% 0.00in /  0mm 642 W/m2
13:39 76.8 °F /  24.9 °C 62.8 °F /  17.1 °C 29.92in /  1013.1hPa South 3.2mph /  5.1km/h 6mph /  9.7km/h 62% 0.00in /  0mm 526 W/m2
13:44 76.3 °F /  24.6 °C 62.3 °F /  16.8 °C 29.92in /  1013.1hPa South 1.2mph /  1.9km/h 5mph /  8km/h 62.2% 0.00in /  0mm 452 W/m2
13:49 76.3 °F /  24.6 °C 62.8 °F /  17.1 °C 29.91in /  1012.8hPa SSW 2.9mph /  4.7km/h 7mph /  11.3km/h 63% 0.00in /  0mm 480 W/m2
13:54 76.3 °F /  24.6 °C 62.6 °F /  17 °C 29.92in /  1013.1hPa SW 2.1mph /  3.4km/h 7mph /  11.3km/h 62.8% 0.00in /  0mm 654 W/m2
13:59 76.5 °F /  24.7 °C 63 °F /  17.2 °C 29.92in /  1013.1hPa SW 2.8mph /  4.5km/h 6mph /  9.7km/h 63% 0.00in /  0mm 682 W/m2
14:04 77 °F /  25 °C 63.2 °F /  17.3 °C 29.91in /  1012.8hPa SW 1.9mph /  3.1km/h 4mph /  6.4km/h 62.4% 0.00in /  0mm 682 W/m2
14:09 77.4 °F /  25.2 °C 63.3 °F /  17.4 °C 29.91in /  1012.8hPa SW 1.5mph /  2.4km/h 3mph /  4.8km/h 62% 0.00in /  0mm 578 W/m2
14:14 77.9 °F /  25.5 °C 63.8 °F /  17.7 °C 29.91in /  1012.8hPa West 1.6mph /  2.6km/h 4mph /  6.4km/h 61.8% 0.00in /  0mm 425 W/m2
14:19 77.8 °F /  25.4 °C 63.7 °F /  17.6 °C 29.91in /  1012.8hPa West 1.3mph /  2.1km/h 4mph /  6.4km/h 61.8% 0.00in /  0mm 522 W/m2
14:24 78.1 °F /  25.6 °C 63.9 °F /  17.7 °C 29.91in /  1012.8hPa WSW 2.8mph /  4.5km/h 6mph /  9.7km/h 61.8% 0.00in /  0mm 469 W/m2
14:29 77.7 °F /  25.4 °C 63.5 °F /  17.5 °C 29.91in /  1012.8hPa West 3.3mph /  5.3km/h 6mph /  9.7km/h 61.8% 0.00in /  0mm 364 W/m2
14:34 77.2 °F /  25.1 °C 63.6 °F /  17.6 °C 29.91in /  1012.8hPa West 2.1mph /  3.4km/h 6mph /  9.7km/h 62.8% 0.00in /  0mm 294 W/m2
14:39 77.3 °F /  25.2 °C 63.8 °F /  17.7 °C 29.91in /  1012.8hPa West 2.5mph /  4km/h 5mph /  8km/h 63% 0.00in /  0mm 309 W/m2
14:44 77.5 °F /  25.3 °C 63.9 °F /  17.7 °C 29.91in /  1012.8hPa NNW 2.5mph /  4km/h 5mph /  8km/h 63% 0.00in /  0mm 322 W/m2
14:49 76.9 °F /  24.9 °C 63.6 °F /  17.6 °C 29.91in /  1012.8hPa WNW 2.8mph /  4.5km/h 5mph /  8km/h 63.4% 0.00in /  0mm 318 W/m2
14:54 76.7 °F /  24.8 °C 63.6 °F /  17.6 °C 29.91in /  1012.8hPa WNW 2.8mph /  4.5km/h 7mph /  11.3km/h 64% 0.00in /  0mm 313 W/m2
14:59 76.6 °F /  24.8 °C 63.5 °F /  17.5 °C 29.91in /  1012.8hPa WNW 2.4mph /  3.9km/h 5mph /  8km/h 64% 0.00in /  0mm 304 W/m2
15:04 76.7 °F /  24.8 °C 63.6 °F /  17.6 °C 29.91in /  1012.8hPa West 2.3mph /  3.7km/h 4mph /  6.4km/h 64% 0.00in /  0mm 285 W/m2
15:09 76.8 °F /  24.9 °C 63.7 °F /  17.6 °C 29.91in /  1012.8hPa West 3.2mph /  5.1km/h 5mph /  8km/h 64% 0.00in /  0mm 271 W/m2
15:14 76.9 °F /  24.9 °C 63.8 °F /  17.7 °C 29.91in /  1012.8hPa West 2.8mph /  4.5km/h 5mph /  8km/h 64% 0.00in /  0mm 260 W/m2
15:19 76.9 °F /  24.9 °C 63.8 °F /  17.7 °C 29.91in /  1012.8hPa WNW 2mph /  3.2km/h 5mph /  8km/h 64% 0.00in /  0mm 246 W/m2
15:24 76.8 °F /  24.9 °C 63.9 °F /  17.7 °C 29.90in /  1012.4hPa WNW 2.3mph /  3.7km/h 5mph /  8km/h 64.4% 0.00in /  0mm 244 W/m2
15:29 76.6 °F /  24.8 °C 63.5 °F /  17.5 °C 29.90in /  1012.4hPa West 2mph /  3.2km/h 5mph /  8km/h 64% 0.00in /  0mm 257 W/m2
15:34 76.6 °F /  24.8 °C 63.9 °F /  17.7 °C 29.90in /  1012.4hPa WNW 2.5mph /  4km/h 5mph /  8km/h 64.8% 0.00in /  0mm 272 W/m2
15:39 76.9 °F /  24.9 °C 64.1 °F /  17.8 °C 29.91in /  1012.8hPa West 2.1mph /  3.4km/h 5mph /  8km/h 64.6% 0.00in /  0mm 279 W/m2
15:44 77 °F /  25 °C 63.9 °F /  17.7 °C 29.91in /  1012.8hPa West 3.7mph /  6km/h 6mph /  9.7km/h 64% 0.00in /  0mm 322 W/m2
15:49 76.8 °F /  24.9 °C 63.8 °F /  17.7 °C 29.91in /  1012.8hPa West 4.2mph /  6.8km/h 7mph /  11.3km/h 64.3% 0.00in /  0mm 387 W/m2
15:54 76.9 °F /  24.9 °C 64.2 °F /  17.9 °C 29.90in /  1012.4hPa WNW 3.5mph /  5.6km/h 6mph /  9.7km/h 64.8% 0.00in /  0mm 450 W/m2
15:59 77.3 °F /  25.2 °C 64.4 °F /  18 °C 29.90in /  1012.4hPa WNW 4mph /  6.4km/h 7mph /  11.3km/h 64.4% 0.00in /  0mm 591 W/m2
16:04 77.5 °F /  25.3 °C 64.4 °F /  18 °C 29.90in /  1012.4hPa West 4.9mph /  7.9km/h 8mph /  12.9km/h 64% 0.00in /  0mm 366 W/m2
16:09 77.6 °F /  25.3 °C 64.6 °F /  18.1 °C 29.90in /  1012.4hPa West 3.7mph /  6km/h 9mph /  14.5km/h 64.4% 0.00in /  0mm 353 W/m2
16:14 77.6 °F /  25.3 °C 64.7 °F /  18.2 °C 29.89in /  1012.1hPa West 4.9mph /  7.9km/h 7mph /  11.3km/h 64.6% 0.00in /  0mm 330 W/m2
16:19 77.5 °F /  25.3 °C 64.8 °F /  18.2 °C 29.89in /  1012.1hPa West 4.4mph /  7.1km/h 7mph /  11.3km/h 65% 0.00in /  0mm 339 W/m2
16:24 77.4 °F /  25.2 °C 64.8 °F /  18.2 °C 29.90in /  1012.4hPa WSW 4.3mph /  6.9km/h 9mph /  14.5km/h 65% 0.00in /  0mm 302 W/m2
16:29 77.4 °F /  25.2 °C 64.8 °F /  18.2 °C 29.90in /  1012.4hPa WSW 5.1mph /  8.2km/h 9mph /  14.5km/h 65% 0.00in /  0mm 304 W/m2
16:34 77.4 °F /  25.2 °C 64.8 °F /  18.2 °C 29.90in /  1012.4hPa West 4.1mph /  6.6km/h 9mph /  14.5km/h 65% 0.00in /  0mm 334 W/m2
16:39 77.3 °F /  25.2 °C 64.7 °F /  18.2 °C 29.90in /  1012.4hPa WNW 5.3mph /  8.5km/h 9mph /  14.5km/h 65% 0.00in /  0mm 359 W/m2
16:44 77.2 °F /  25.1 °C 64.6 °F /  18.1 °C 29.90in /  1012.4hPa West 3.7mph /  6km/h 8mph /  12.9km/h 65% 0.00in /  0mm 383 W/m2
16:49 77.4 °F /  25.2 °C 64.8 °F /  18.2 °C 29.90in /  1012.4hPa WNW 4.5mph /  7.2km/h 7mph /  11.3km/h 65% 0.00in /  0mm 287 W/m2
16:54 77.1 °F /  25.1 °C 64.7 °F /  18.2 °C 29.90in /  1012.4hPa West 5.3mph /  8.5km/h 8mph /  12.9km/h 65.6% 0.00in /  0mm 281 W/m2
16:59 76.8 °F /  24.9 °C 64.6 °F /  18.1 °C 29.90in /  1012.4hPa NW 4.9mph /  7.9km/h 9mph /  14.5km/h 66% 0.00in /  0mm 288 W/m2
17:04 76.5 °F /  24.7 °C 64.3 °F /  17.9 °C 29.90in /  1012.4hPa WNW 4.1mph /  6.6km/h 9mph /  14.5km/h 66.2% 0.00in /  0mm 294 W/m2
17:09 76.5 °F /  24.7 °C 64.7 °F /  18.2 °C 29.90in /  1012.4hPa West 3mph /  4.8km/h 9mph /  14.5km/h 66.8% 0.00in /  0mm 290 W/m2
17:14 76.5 °F /  24.7 °C 64.4 °F /  18 °C 29.90in /  1012.4hPa West 5.7mph /  9.2km/h 9mph /  14.5km/h 66.2% 0.00in /  0mm 274 W/m2
17:19 76 °F /  24.4 °C 64.1 °F /  17.8 °C 29.90in /  1012.4hPa WNW 3.8mph /  6.1km/h 8mph /  12.9km/h 66.6% 0.00in /  0mm 262 W/m2
17:24 75.9 °F /  24.4 °C 64.2 °F /  17.9 °C 29.90in /  1012.4hPa West 4.2mph /  6.8km/h 8mph /  12.9km/h 67% 0.00in /  0mm 265 W/m2
17:29 76.1 °F /  24.5 °C 64.4 °F /  18 °C 29.90in /  1012.4hPa WNW 3.7mph /  6km/h 7mph /  11.3km/h 67% 0.00in /  0mm 262 W/m2
17:34 75.9 °F /  24.4 °C 64.2 °F /  17.9 °C 29.90in /  1012.4hPa WNW 2.1mph /  3.4km/h 6mph /  9.7km/h 67% 0.00in /  0mm 241 W/m2
17:39 76.1 °F /  24.5 °C 64.4 °F /  18 °C 29.90in /  1012.4hPa WNW 3.3mph /  5.3km/h 7mph /  11.3km/h 67% 0.00in /  0mm 214 W/m2
17:44 76.1 °F /  24.5 °C 64.4 °F /  18 °C 29.90in /  1012.4hPa WNW 2.8mph /  4.5km/h 7mph /  11.3km/h 67% 0.00in /  0mm 207 W/m2
17:49 76.2 °F /  24.6 °C 64.5 °F /  18.1 °C 29.90in /  1012.4hPa WNW 4.1mph /  6.6km/h 7mph /  11.3km/h 67% 0.00in /  0mm 193 W/m2
17:54 76.2 °F /  24.6 °C 64.6 °F /  18.1 °C 29.90in /  1012.4hPa West 3.1mph /  5km/h 6mph /  9.7km/h 67.2% 0.00in /  0mm 193 W/m2
17:59 76.1 °F /  24.5 °C 64.5 °F /  18.1 °C 29.90in /  1012.4hPa West 4.4mph /  7.1km/h 7mph /  11.3km/h 67.2% 0.00in /  0mm 207 W/m2
18:04 76 °F /  24.4 °C 64.6 °F /  18.1 °C 29.90in /  1012.4hPa West 4.4mph /  7.1km/h 8mph /  12.9km/h 67.8% 0.00in /  0mm 207 W/m2
18:09 75.7 °F /  24.3 °C 64.4 °F /  18 °C 29.90in /  1012.4hPa West 3.5mph /  5.6km/h 8mph /  12.9km/h 68% 0.00in /  0mm 197 W/m2
18:14 75.7 °F /  24.3 °C 64.4 °F /  18 °C 29.90in /  1012.4hPa West 4mph /  6.4km/h 7mph /  11.3km/h 68% 0.00in /  0mm 169 W/m2
18:19 75.7 °F /  24.3 °C 64.4 °F /  18 °C 29.90in /  1012.4hPa WSW 2mph /  3.2km/h 6mph /  9.7km/h 68% 0.00in /  0mm 163 W/m2
18:24 75.7 °F /  24.3 °C 64.4 °F /  18 °C 29.90in /  1012.4hPa West 3.6mph /  5.8km/h 7mph /  11.3km/h 68% 0.00in /  0mm 158 W/m2
18:29 75.6 °F /  24.2 °C 64.3 °F /  17.9 °C 29.90in /  1012.4hPa West 2.9mph /  4.7km/h 6mph /  9.7km/h 68% 0.00in /  0mm 155 W/m2
18:34 75.7 °F /  24.3 °C 64.3 °F /  17.9 °C 29.90in /  1012.4hPa West 2.8mph /  4.5km/h 5mph /  8km/h 68% 0.00in /  0mm 135 W/m2
18:39 75.7 °F /  24.3 °C 64.4 °F /  18 °C 29.90in /  1012.4hPa West 2.5mph /  4km/h 6mph /  9.7km/h 68% 0.00in /  0mm 98 W/m2
18:44 75.5 °F /  24.2 °C 64.3 °F /  17.9 °C 29.90in /  1012.4hPa West 3mph /  4.8km/h 6mph /  9.7km/h 68.4% 0.00in /  0mm 90 W/m2
18:49 75.2 °F /  24 °C 64.4 °F /  18 °C 29.90in /  1012.4hPa West 2.9mph /  4.7km/h 5mph /  8km/h 69% 0.00in /  0mm 109 W/m2
18:54 75.3 °F /  24.1 °C 64.5 °F /  18.1 °C 29.90in /  1012.4hPa West 2.2mph /  3.5km/h 5mph /  8km/h 69% 0.00in /  0mm 127 W/m2
18:59 75.2 °F /  24 °C 64.4 °F /  18 °C 29.90in /  1012.4hPa NW 2.1mph /  3.4km/h 5mph /  8km/h 69% 0.00in /  0mm 128 W/m2
19:04 75.2 °F /  24 °C 64.4 °F /  18 °C 29.90in /  1012.4hPa WNW 3.2mph /  5.1km/h 5mph /  8km/h 69% 0.00in /  0mm 128 W/m2
19:09 75.1 °F /  23.9 °C 64.2 °F /  17.9 °C 29.90in /  1012.4hPa WNW 4mph /  6.4km/h 6mph /  9.7km/h 68.8% 0.00in /  0mm 123 W/m2
19:14 75 °F /  23.9 °C 63.7 °F /  17.6 °C 29.91in /  1012.8hPa West 2.1mph /  3.4km/h 6mph /  9.7km/h 68% 0.00in /  0mm 107 W/m2
19:19 75.3 °F /  24.1 °C 64.5 °F /  18.1 °C 29.91in /  1012.8hPa West 1mph /  1.6km/h 4mph /  6.4km/h 69% 0.00in /  0mm 91 W/m2
19:24 75.4 °F /  24.1 °C 64.5 °F /  18.1 °C 29.91in /  1012.8hPa West 2.6mph /  4.2km/h 5mph /  8km/h 68.8% 0.00in /  0mm 83 W/m2
19:29 75.2 °F /  24 °C 64 °F /  17.8 °C 29.91in /  1012.8hPa West 3.2mph /  5.1km/h 5mph /  8km/h 68.3% 0.00in /  0mm 72 W/m2
19:34 75 °F /  23.9 °C 64.1 °F /  17.8 °C 29.91in /  1012.8hPa West 2.5mph /  4km/h 4mph /  6.4km/h 68.8% 0.00in /  0mm 70 W/m2
19:39 75 °F /  23.9 °C 64.2 °F /  17.9 °C 29.91in /  1012.8hPa West 1.4mph /  2.3km/h 4mph /  6.4km/h 69% 0.00in /  0mm 72 W/m2
19:44 74.8 °F /  23.8 °C 64.3 °F /  17.9 °C 29.91in /  1012.8hPa West 1.6mph /  2.6km/h 4mph /  6.4km/h 69.8% 0.00in /  0mm 72 W/m2
19:49 74.8 °F /  23.8 °C 64.6 °F /  18.1 °C 29.91in /  1012.8hPa West 2.8mph /  4.5km/h 4mph /  6.4km/h 70.8% 0.00in /  0mm 72 W/m2
19:54 74.4 °F /  23.6 °C 64.8 °F /  18.2 °C 29.91in /  1012.8hPa West 2.3mph /  3.7km/h 4mph /  6.4km/h 71.8% 0.00in /  0mm 67 W/m2
19:59 74 °F /  23.3 °C 64.7 °F /  18.2 °C 29.91in /  1012.8hPa West 2.4mph /  3.9km/h 4mph /  6.4km/h 72.6% 0.00in /  0mm 62 W/m2
20:04 73.8 °F /  23.2 °C 64.7 °F /  18.2 °C 29.91in /  1012.8hPa West 2.8mph /  4.5km/h 4mph /  6.4km/h 73% 0.00in /  0mm 58 W/m2
20:09 73.6 °F /  23.1 °C 64.6 °F /  18.1 °C 29.92in /  1013.1hPa West 2.5mph /  4km/h 4mph /  6.4km/h 73.4% 0.00in /  0mm 47 W/m2
20:14 73.5 °F /  23.1 °C 64.7 °F /  18.2 °C 29.92in /  1013.1hPa West 2.2mph /  3.5km/h 4mph /  6.4km/h 74% 0.00in /  0mm 35 W/m2
20:19 73.2 °F /  22.9 °C 64.4 °F /  18 °C 29.91in /  1012.8hPa West 4mph /  6.4km/h 5mph /  8km/h 74% 0.00in /  0mm 32 W/m2
20:24 73 °F /  22.8 °C 64.3 °F /  17.9 °C 29.92in /  1013.1hPa West 2mph /  3.2km/h 5mph /  8km/h 74.4% 0.00in /  0mm 28 W/m2
20:29 72.8 °F /  22.7 °C 64.3 °F /  17.9 °C 29.92in /  1013.1hPa West 2.5mph /  4km/h 5mph /  8km/h 75% 0.00in /  0mm 23 W/m2
20:34 72.5 °F /  22.5 °C 64.4 °F /  18 °C 29.92in /  1013.1hPa West 2.8mph /  4.5km/h 5mph /  8km/h 75.6% 0.00in /  0mm 21 W/m2
20:39 72.1 °F /  22.3 °C 64.2 °F /  17.9 °C 29.92in /  1013.1hPa West 3.4mph /  5.5km/h 5mph /  8km/h 76% 0.00in /  0mm 21 W/m2
20:44 72.1 °F /  22.3 °C 64.1 °F /  17.8 °C 29.92in /  1013.1hPa West 3.5mph /  5.6km/h 6mph /  9.7km/h 76% 0.00in /  0mm 19 W/m2
20:49 71.9 °F /  22.2 °C 63.9 °F /  17.7 °C 29.93in /  1013.4hPa West 3.7mph /  6km/h 5mph /  8km/h 76% 0.00in /  0mm 19 W/m2
20:54 71.5 °F /  21.9 °C 63.8 °F /  17.7 °C 29.93in /  1013.4hPa West 3.7mph /  6km/h 6mph /  9.7km/h 76.6% 0.00in /  0mm 19 W/m2
20:59 71.2 °F /  21.8 °C 63.7 °F /  17.6 °C 29.93in /  1013.4hPa WNW 2.9mph /  4.7km/h 7mph /  11.3km/h 77% 0.00in /  0mm 18 W/m2
21:04 71.2 °F /  21.8 °C 63.7 °F /  17.6 °C 29.93in /  1013.4hPa WNW 2.2mph /  3.5km/h 5mph /  8km/h 77% 0.00in /  0mm 14 W/m2
21:09 71.1 °F /  21.7 °C 63.5 °F /  17.5 °C 29.93in /  1013.4hPa WNW 2.5mph /  4km/h 6mph /  9.7km/h 77% 0.00in /  0mm 11 W/m2
21:14 70.9 °F /  21.6 °C 63.3 °F /  17.4 °C 29.93in /  1013.4hPa WNW 3mph /  4.8km/h 6mph /  9.7km/h 77% 0.00in /  0mm 7 W/m2
21:19 70.9 °F /  21.6 °C 63.3 °F /  17.4 °C 29.93in /  1013.4hPa WNW 2.5mph /  4km/h 4mph /  6.4km/h 77% 0.00in /  0mm 5 W/m2
21:24 70.5 °F /  21.4 °C 63 °F /  17.2 °C 29.93in /  1013.4hPa West 2.4mph /  3.9km/h 5mph /  8km/h 77% 0.00in /  0mm 0 W/m2
21:29 70.4 °F /  21.3 °C 62.9 °F /  17.2 °C 29.94in /  1013.8hPa West 1.8mph /  2.9km/h 4mph /  6.4km/h 77% 0.00in /  0mm 0 W/m2
21:34 70.3 °F /  21.3 °C 62.7 °F /  17.1 °C 29.94in /  1013.8hPa West 2.6mph /  4.2km/h 4mph /  6.4km/h 77% 0.00in /  0mm 0 W/m2
21:39 70.1 °F /  21.2 °C 62.5 °F /  16.9 °C 29.95in /  1014.1hPa West 3mph /  4.8km/h 4mph /  6.4km/h 77% 0.00in /  0mm 0 W/m2
21:44 69.9 °F /  21.1 °C 62.3 °F /  16.8 °C 29.95in /  1014.1hPa West 2.7mph /  4.3km/h 4mph /  6.4km/h 77% 0.00in /  0mm 0 W/m2
21:49 69.7 °F /  20.9 °C 62.4 °F /  16.9 °C 29.95in /  1014.1hPa West 3.1mph /  5km/h 5mph /  8km/h 77.8% 0.00in /  0mm 0 W/m2
21:54 69.6 °F /  20.9 °C 62.4 °F /  16.9 °C 29.96in /  1014.4hPa WNW 2.1mph /  3.4km/h 4mph /  6.4km/h 78% 0.00in /  0mm 0 W/m2
21:59 69.4 °F /  20.8 °C 62.2 °F /  16.8 °C 29.96in /  1014.4hPa WNW 2.2mph /  3.5km/h 4mph /  6.4km/h 78% 0.00in /  0mm 0 W/m2
22:04 69.3 °F /  20.7 °C 62.1 °F /  16.7 °C 29.96in /  1014.4hPa West 4mph /  6.4km/h 7mph /  11.3km/h 78% 0.00in /  0mm 0 W/m2
22:09 69.1 °F /  20.6 °C 61.9 °F /  16.6 °C 29.96in /  1014.4hPa West 2.8mph /  4.5km/h 6mph /  9.7km/h 78% 0.00in /  0mm 0 W/m2
22:14 68.9 °F /  20.5 °C 61.7 °F /  16.5 °C 29.96in /  1014.4hPa West 2.5mph /  4km/h 4mph /  6.4km/h 78% 0.00in /  0mm 0 W/m2
22:19 68.7 °F /  20.4 °C 61.5 °F /  16.4 °C 29.96in /  1014.4hPa West 2.4mph /  3.9km/h 4mph /  6.4km/h 78% 0.00in /  0mm 0 W/m2
22:24 68.5 °F /  20.3 °C 61.3 °F /  16.3 °C 29.96in /  1014.4hPa West 1.8mph /  2.9km/h 4mph /  6.4km/h 78% 0.00in /  0mm 0 W/m2
22:29 68.5 °F /  20.3 °C 61.3 °F /  16.3 °C 29.96in /  1014.4hPa West 2mph /  3.2km/h 4mph /  6.4km/h 78% 0.00in /  0mm 0 W/m2
22:34 68.3 °F /  20.2 °C 61.1 °F /  16.2 °C 29.96in /  1014.4hPa West 1.3mph /  2.1km/h 4mph /  6.4km/h 78% 0.00in /  0mm 0 W/m2
22:39 68.2 °F /  20.1 °C 61 °F /  16.1 °C 29.96in /  1014.4hPa West 2mph /  3.2km/h 3mph /  4.8km/h 78% 0.00in /  0mm 0 W/m2
22:44 68.1 °F /  20.1 °C 60.9 °F /  16.1 °C 29.96in /  1014.4hPa West 1.8mph /  2.9km/h 4mph /  6.4km/h 78% 0.00in /  0mm 0 W/m2
22:49 67.9 °F /  19.9 °C 60.7 °F /  15.9 °C 29.96in /  1014.4hPa West 2.5mph /  4km/h 4mph /  6.4km/h 78% 0.00in /  0mm 0 W/m2
22:54 67.7 °F /  19.8 °C 60.6 °F /  15.9 °C 29.96in /  1014.4hPa West 2.2mph /  3.5km/h 4mph /  6.4km/h 78% 0.00in /  0mm 0 W/m2
22:59 67.6 °F /  19.8 °C 60.7 °F /  15.9 °C 29.96in /  1014.4hPa West 2mph /  3.2km/h 4mph /  6.4km/h 78.2% 0.00in /  0mm 0 W/m2
23:04 67.6 °F /  19.8 °C 60.9 °F /  16.1 °C 29.96in /  1014.4hPa WSW 2.4mph /  3.9km/h 4mph /  6.4km/h 79% 0.00in /  0mm 0 W/m2
23:09 67.5 °F /  19.7 °C 60.8 °F /  16 °C 29.96in /  1014.4hPa WSW 1.7mph /  2.7km/h 4mph /  6.4km/h 79% 0.00in /  0mm 0 W/m2
23:14 67.3 °F /  19.6 °C 60.6 °F /  15.9 °C 29.96in /  1014.4hPa WSW 0.4mph /  0.6km/h 2mph /  3.2km/h 79% 0.00in /  0mm 0 W/m2
23:19 67.3 °F /  19.6 °C 60.6 °F /  15.9 °C 29.96in /  1014.4hPa WSW 0.2mph /  0.3km/h 1mph /  1.6km/h 79% 0.00in /  0mm 0 W/m2
23:24 67.1 °F /  19.5 °C 60.4 °F /  15.8 °C 29.95in /  1014.1hPa WSW 1.8mph /  2.9km/h 3mph /  4.8km/h 79% 0.00in /  0mm 0 W/m2
23:29 66.9 °F /  19.4 °C 60.6 °F /  15.9 °C 29.95in /  1014.1hPa WSW 0.5mph /  0.8km/h 3mph /  4.8km/h 79.8% 0.00in /  0mm 0 W/m2
23:34 66.9 °F /  19.4 °C 60.4 °F /  15.8 °C 29.95in /  1014.1hPa WSW 0.5mph /  0.8km/h 2mph /  3.2km/h 79.4% 0.00in /  0mm 0 W/m2
23:39 66.8 °F /  19.3 °C 60.5 °F /  15.8 °C 29.95in /  1014.1hPa WSW 0.4mph /  0.6km/h 2mph /  3.2km/h 80% 0.00in /  0mm 0 W/m2
23:44 66.7 °F /  19.3 °C 60.4 °F /  15.8 °C 29.95in /  1014.1hPa WSW 0.4mph /  0.6km/h 2mph /  3.2km/h 80% 0.00in /  0mm 0 W/m2
23:49 66.7 °F /  19.3 °C 60.4 °F /  15.8 °C 29.95in /  1014.1hPa WSW 1.3mph /  2.1km/h 2mph /  3.2km/h 80% 0.00in /  0mm 0 W/m2
23:54 66.6 °F /  19.2 °C 60.5 °F /  15.8 °C 29.96in /  1014.4hPa WSW 1.2mph /  1.9km/h 2mph /  3.2km/h 80.5% 0.00in /  0mm 0 W/m2
23:59 66.6 °F /  19.2 °C 60.6 °F /  15.9 °C 29.96in /  1014.4hPa Calm   1mph /  1.6km/h 81% 0.00in /  0mm 0 W/m2
Bath Spa Weather
Compliments of Weather Underground - 2 mb